Urb Portal de los Pinos, Puerto Rico
Current Conditions -  °F | °C
As of 1:56 PM on Thursday 29 Jan 2015 (Local Time) from TJSJ Reporting Station
Scattered Clouds Scattered Clouds  
Wind Chill: 85°   Ceiling: Unl
Heat Index: 88°   Visibility: 10mi
Dew Point: 68°   Wind: 12mph
Humidity: 57%   Direction: 50°NE
Pressure: 29.99"   Gusts: NA
Location:  18.3754°N, 66.0577°W
Report Text: TJSJ 291756Z 05010KT 10SM SCT038 SCT095 29/20 A2999 RMK AO2 SLP153 SHRA DSNT S T02940200 10294 20244 58023
Loading
Personal Weather Stations






























Interactive Weather Map New forecast layout! Learn more

10-Day Weather Forecast

Advertisements
Track Severe Weather on mobile